Orel, Russia
Current Conditions -  °F | °C
As of 5:00 PM on Tuesday 21 Oct 2014 (Local Time) from UUBP Reporting Station
Broken Clouds Broken Clouds  
Wind Chill: 52°   Ceiling: 2600
Heat Index: 52°   Visibility: 6mi
Dew Point: 46°   Wind: 7mph
Humidity: 82%   Direction: 300°WNW
Pressure: 29.5"   Gusts: NA
Location:  52.99°N, 36.09°E
Report Text: UUBP 211400Z 30003MPS 9999 BKN026CB 11/08 Q0999 NOSIG RMKQFE731 16290155
Loading
Personal Weather Stations






























Interactive Weather Map
Tropical Storm Tracking
New forecast layout! Learn more

10-Day Weather Forecast

Advertisements
Track Severe Weather on mobile